sensor_id;sensor_type;location;lat;lon;timestamp;pressure;altitude;pressure_sealevel;temperature;humidity
58785;BME280;44557;51.862;19.378;2022-07-04T00:00:23;99424.75;;;19.22;90.80
58785;BME280;44557;51.862;19.378;2022-07-04T00:01:37;99424.02;;;19.47;89.67
58785;BME280;44557;51.862;19.378;2022-07-04T00:02:40;99423.46;;;19.30;90.24
58785;BME280;44557;51.862;19.378;2022-07-04T00:03:42;99425.60;;;19.23;90.84
58785;BME280;44557;51.862;19.378;2022-07-04T00:04:43;99425.66;;;19.32;90.88
58785;BME280;44557;51.862;19.378;2022-07-04T00:05:45;99430.37;;;19.36;90.43
58785;BME280;44557;51.862;19.378;2022-07-04T00:06:46;99426.20;;;19.13;91.41
58785;BME280;44557;51.862;19.378;2022-07-04T00:07:49;99425.32;;;19.10;91.79
58785;BME280;44557;51.862;19.378;2022-07-04T00:08:51;99423.23;;;19.05;92.56
58785;BME280;44557;51.862;19.378;2022-07-04T00:09:52;99425.54;;;19.20;92.05
58785;BME280;44557;51.862;19.378;2022-07-04T00:10:54;99421.84;;;19.15;92.12
58785;BME280;44557;51.862;19.378;2022-07-04T00:11:55;99421.91;;;19.05;92.33
58785;BME280;44557;51.862;19.378;2022-07-04T00:12:57;99418.21;;;19.08;92.19
58785;BME280;44557;51.862;19.378;2022-07-04T00:13:58;99419.10;;;18.98;92.81
58785;BME280;44557;51.862;19.378;2022-07-04T00:15:01;99423.35;;;18.99;93.12
58785;BME280;44557;51.862;19.378;2022-07-04T00:16:03;99421.26;;;19.05;92.67
58785;BME280;44557;51.862;19.378;2022-07-04T00:17:04;99420.85;;;18.98;93.09
58785;BME280;44557;51.862;19.378;2022-07-04T00:18:06;99420.21;;;19.10;92.68
58785;BME280;44557;51.862;19.378;2022-07-04T00:19:07;99420.27;;;19.01;92.97
58785;BME280;44557;51.862;19.378;2022-07-04T00:20:09;99418.95;;;19.31;91.65
58785;BME280;44557;51.862;19.378;2022-07-04T00:21:11;99421.20;;;19.56;89.62
58785;BME280;44557;51.862;19.378;2022-07-04T00:22:13;99419.55;;;19.43;89.84
58785;BME280;44557;51.862;19.378;2022-07-04T00:23:14;99419.37;;;19.17;91.09
58785;BME280;44557;51.862;19.378;2022-07-04T00:24:16;99418.55;;;19.07;92.03
58785;BME280;44557;51.862;19.378;2022-07-04T00:25:18;99415.91;;;19.15;91.97
58785;BME280;44557;51.862;19.378;2022-07-04T00:26:19;99414.06;;;19.04;92.52
58785;BME280;44557;51.862;19.378;2022-07-04T00:27:20;99415.52;;;18.95;93.23
58785;BME280;44557;51.862;19.378;2022-07-04T00:28:22;99415.09;;;18.96;93.39
58785;BME280;44557;51.862;19.378;2022-07-04T00:29:23;99412.83;;;18.90;93.62
58785;BME280;44557;51.862;19.378;2022-07-04T00:30:25;99415.84;;;18.87;94.24
58785;BME280;44557;51.862;19.378;2022-07-04T00:31:26;99414.66;;;18.76;94.66
58785;BME280;44557;51.862;19.378;2022-07-04T00:32:28;99412.63;;;18.71;95.39
58785;BME280;44557;51.862;19.378;2022-07-04T00:33:30;99411.10;;;18.85;94.88
58785;BME280;44557;51.862;19.378;2022-07-04T00:34:31;99412.40;;;18.75;95.00
58785;BME280;44557;51.862;19.378;2022-07-04T00:35:33;99410.84;;;18.77;95.02
58785;BME280;44557;51.862;19.378;2022-07-04T00:36:35;99407.52;;;18.62;95.91
58785;BME280;44557;51.862;19.378;2022-07-04T00:37:36;99404.15;;;18.64;96.40
58785;BME280;44557;51.862;19.378;2022-07-04T00:38:38;99402.82;;;18.62;96.17
58785;BME280;44557;51.862;19.378;2022-07-04T00:39:39;99401.84;;;18.71;95.85
58785;BME280;44557;51.862;19.378;2022-07-04T00:40:41;99405.98;;;18.79;95.45
58785;BME280;44557;51.862;19.378;2022-07-04T00:41:43;99406.40;;;18.74;95.22
58785;BME280;44557;51.862;19.378;2022-07-04T00:42:44;99403.61;;;18.67;95.96
58785;BME280;44557;51.862;19.378;2022-07-04T00:44:03;99404.30;;;18.55;96.57
58785;BME280;44557;51.862;19.378;2022-07-04T00:45:06;99400.42;;;18.52;96.98
58785;BME280;44557;51.862;19.378;2022-07-04T00:46:08;99401.11;;;18.59;96.86
58785;BME280;44557;51.862;19.378;2022-07-04T00:47:09;99399.33;;;18.74;96.11
58785;BME280;44557;51.862;19.378;2022-07-04T00:48:11;99399.96;;;18.71;95.90
58785;BME280;44557;51.862;19.378;2022-07-04T00:49:14;99399.48;;;18.81;95.37
58785;BME280;44557;51.862;19.378;2022-07-04T00:50:16;99401.02;;;18.79;95.27
58785;BME280;44557;51.862;19.378;2022-07-04T00:51:18;99400.85;;;18.93;94.56
58785;BME280;44557;51.862;19.378;2022-07-04T00:52:20;99399.42;;;19.09;93.41
58785;BME280;44557;51.862;19.378;2022-07-04T00:53:22;99397.74;;;19.03;92.96
58785;BME280;44557;51.862;19.378;2022-07-04T00:54:28;99400.46;;;19.00;92.95
58785;BME280;44557;51.862;19.378;2022-07-04T00:55:30;99403.21;;;18.80;94.00
58785;BME280;44557;51.862;19.378;2022-07-04T00:56:35;99402.34;;;18.68;95.15
58785;BME280;44557;51.862;19.378;2022-07-04T00:57:37;99399.75;;;18.72;95.07
58785;BME280;44557;51.862;19.378;2022-07-04T00:58:38;99401.27;;;18.67;95.27
58785;BME280;44557;51.862;19.378;2022-07-04T00:59:40;99398.80;;;18.47;96.60
58785;BME280;44557;51.862;19.378;2022-07-04T01:00:42;99401.96;;;18.43;97.43
58785;BME280;44557;51.862;19.378;2022-07-04T01:01:43;99402.30;;;18.74;96.11
58785;BME280;44557;51.862;19.378;2022-07-04T01:02:46;99399.05;;;18.78;95.21
58785;BME280;44557;51.862;19.378;2022-07-04T01:03:48;99400.44;;;18.90;94.21
58785;BME280;44557;51.862;19.378;2022-07-04T01:04:50;99401.05;;;18.82;94.62
58785;BME280;44557;51.862;19.378;2022-07-04T01:05:52;99399.98;;;18.73;94.66
58785;BME280;44557;51.862;19.378;2022-07-04T01:06:54;99398.62;;;18.84;94.69
58785;BME280;44557;51.862;19.378;2022-07-04T01:07:56;99397.00;;;19.03;92.91
58785;BME280;44557;51.862;19.378;2022-07-04T01:08:59;99396.69;;;18.84;93.93
58785;BME280;44557;51.862;19.378;2022-07-04T01:10:02;99398.31;;;18.84;93.93
58785;BME280;44557;51.862;19.378;2022-07-04T01:11:04;99397.39;;;18.75;94.41
58785;BME280;44557;51.862;19.378;2022-07-04T01:12:06;99394.35;;;18.78;94.38
58785;BME280;44557;51.862;19.378;2022-07-04T01:13:07;99397.12;;;18.56;95.33
58785;BME280;44557;51.862;19.378;2022-07-04T01:14:09;99394.15;;;18.77;95.05
58785;BME280;44557;51.862;19.378;2022-07-04T01:15:10;99389.08;;;18.88;93.98
58785;BME280;44557;51.862;19.378;2022-07-04T01:16:15;99393.88;;;18.75;94.14
58785;BME280;44557;51.862;19.378;2022-07-04T01:17:16;99389.35;;;18.48;95.27
58785;BME280;44557;51.862;19.378;2022-07-04T01:18:18;99389.39;;;18.40;96.46
58785;BME280;44557;51.862;19.378;2022-07-04T01:19:19;99391.08;;;18.63;95.96
58785;BME280;44557;51.862;19.378;2022-07-04T01:20:21;99391.67;;;18.56;95.56
58785;BME280;44557;51.862;19.378;2022-07-04T01:21:25;99395.42;;;18.44;96.09
58785;BME280;44557;51.862;19.378;2022-07-04T01:22:27;99397.25;;;18.53;96.24
58785;BME280;44557;51.862;19.378;2022-07-04T01:23:28;99396.91;;;18.64;95.11
58785;BME280;44557;51.862;19.378;2022-07-04T01:24:30;99393.74;;;18.53;95.09
58785;BME280;44557;51.862;19.378;2022-07-04T01:25:32;99395.59;;;18.60;95.34
58785;BME280;44557;51.862;19.378;2022-07-04T01:26:34;99400.13;;;18.80;93.83
58785;BME280;44557;51.862;19.378;2022-07-04T01:27:35;99396.95;;;18.55;94.75
58785;BME280;44557;51.862;19.378;2022-07-04T01:28:38;99395.29;;;18.46;95.44
58785;BME280;44557;51.862;19.378;2022-07-04T01:29:39;99393.90;;;18.37;95.87
58785;BME280;44557;51.862;19.378;2022-07-04T01:30:41;99394.35;;;18.14;97.13
58785;BME280;44557;51.862;19.378;2022-07-04T01:31:42;99395.45;;;18.23;97.99
58785;BME280;44557;51.862;19.378;2022-07-04T01:32:44;99394.50;;;18.30;97.08
58785;BME280;44557;51.862;19.378;2022-07-04T01:33:45;99394.42;;;18.16;97.60
58785;BME280;44557;51.862;19.378;2022-07-04T01:34:47;99392.66;;;18.06;98.27
58785;BME280;44557;51.862;19.378;2022-07-04T01:35:48;99398.07;;;18.14;98.63
58785;BME280;44557;51.862;19.378;2022-07-04T01:36:50;99392.97;;;18.09;98.52
58785;BME280;44557;51.862;19.378;2022-07-04T01:37:51;99394.11;;;17.98;99.32
58785;BME280;44557;51.862;19.378;2022-07-04T01:38:53;99396.93;;;17.92;99.89
58785;BME280;44557;51.862;19.378;2022-07-04T01:39:55;99395.58;;;18.10;99.53
58785;BME280;44557;51.862;19.378;2022-07-04T01:40:57;99396.80;;;18.10;98.89
58785;BME280;44557;51.862;19.378;2022-07-04T01:41:58;99396.80;;;18.12;98.87
58785;BME280;44557;51.862;19.378;2022-07-04T01:43:00;99398.63;;;18.36;97.72
58785;BME280;44557;51.862;19.378;2022-07-04T01:44:01;99396.35;;;18.37;96.76
58785;BME280;44557;51.862;19.378;2022-07-04T01:45:04;99397.13;;;18.56;95.51
58785;BME280;44557;51.862;19.378;2022-07-04T01:46:05;99396.20;;;18.33;96.12
58785;BME280;44557;51.862;19.378;2022-07-04T01:47:07;99394.91;;;18.26;96.87
58785;BME280;44557;51.862;19.378;2022-07-04T01:48:10;99398.55;;;18.03;98.10
58785;BME280;44557;51.862;19.378;2022-07-04T01:49:12;99396.92;;;17.97;99.41
58785;BME280;44557;51.862;19.378;2022-07-04T01:50:13;99394.77;;;17.98;99.79
58785;BME280;44557;51.862;19.378;2022-07-04T01:51:15;99395.61;;;18.13;99.01
58785;BME280;44557;51.862;19.378;2022-07-04T01:52:16;99393.22;;;17.94;99.55
58785;BME280;44557;51.862;19.378;2022-07-04T01:53:18;99393.96;;;17.86;100.00
58785;BME280;44557;51.862;19.378;2022-07-04T01:54:19;99386.71;;;18.08;99.74
58785;BME280;44557;51.862;19.378;2022-07-04T01:55:21;99386.99;;;18.01;99.61
58785;BME280;44557;51.862;19.378;2022-07-04T01:56:23;99389.26;;;18.09;99.36
58785;BME280;44557;51.862;19.378;2022-07-04T01:57:24;99384.86;;;18.38;97.46
58785;BME280;44557;51.862;19.378;2022-07-04T01:58:26;99387.81;;;18.44;96.98
58785;BME280;44557;51.862;19.378;2022-07-04T01:59:27;99385.66;;;18.34;96.53
58785;BME280;44557;51.862;19.378;2022-07-04T02:00:47;99387.04;;;18.25;97.42
58785;BME280;44557;51.862;19.378;2022-07-04T02:02:07;99389.42;;;18.18;97.81
58785;BME280;44557;51.862;19.378;2022-07-04T02:03:09;99387.96;;;18.17;98.06
58785;BME280;44557;51.862;19.378;2022-07-04T02:04:11;99388.98;;;18.31;97.59
58785;BME280;44557;51.862;19.378;2022-07-04T02:05:13;99387.02;;;18.30;97.56
58785;BME280;44557;51.862;19.378;2022-07-04T02:06:16;99386.55;;;18.15;97.49
58785;BME280;44557;51.862;19.378;2022-07-04T02:07:17;99387.77;;;18.12;98.30
58785;BME280;44557;51.862;19.378;2022-07-04T02:08:19;99389.38;;;17.93;99.30
58785;BME280;44557;51.862;19.378;2022-07-04T02:09:20;99386.77;;;17.89;100.00
58785;BME280;44557;51.862;19.378;2022-07-04T02:10:22;99386.64;;;17.94;99.94
58785;BME280;44557;51.862;19.378;2022-07-04T02:11:23;99386.85;;;17.93;100.00
58785;BME280;44557;51.862;19.378;2022-07-04T02:12:25;99386.77;;;17.84;100.00
58785;BME280;44557;51.862;19.378;2022-07-04T02:13:45;99388.61;;;17.91;100.00
58785;BME280;44557;51.862;19.378;2022-07-04T02:14:48;99388.20;;;18.09;99.60
58785;BME280;44557;51.862;19.378;2022-07-04T02:15:49;99389.02;;;18.30;98.22
58785;BME280;44557;51.862;19.378;2022-07-04T02:16:51;99385.02;;;18.05;98.61
58785;BME280;44557;51.862;19.378;2022-07-04T02:17:52;99384.75;;;18.25;98.32
58785;BME280;44557;51.862;19.378;2022-07-04T02:18:54;99384.59;;;18.13;98.14
58785;BME280;44557;51.862;19.378;2022-07-04T02:19:55;99383.44;;;18.01;98.87
58785;BME280;44557;51.862;19.378;2022-07-04T02:20:57;99385.02;;;17.84;99.95
58785;BME280;44557;51.862;19.378;2022-07-04T02:21:58;99384.34;;;17.81;100.00
58785;BME280;44557;51.862;19.378;2022-07-04T02:23:00;99381.05;;;17.75;100.00
58785;BME280;44557;51.862;19.378;2022-07-04T02:24:02;99378.33;;;17.73;100.00
58785;BME280;44557;51.862;19.378;2022-07-04T02:25:04;99381.42;;;17.80;100.00
58785;BME280;44557;51.862;19.378;2022-07-04T02:26:14;99382.70;;;17.96;100.00
58785;BME280;44557;51.862;19.378;2022-07-04T02:27:16;99381.30;;;18.10;99.21
58785;BME280;44557;51.862;19.378;2022-07-04T02:28:17;99384.14;;;17.93;99.51
58785;BME280;44557;51.862;19.378;2022-07-04T02:29:19;99384.00;;;17.73;100.00
58785;BME280;44557;51.862;19.378;2022-07-04T02:30:21;99388.53;;;17.76;100.00
58785;BME280;44557;51.862;19.378;2022-07-04T02:31:23;99383.30;;;17.86;100.00
58785;BME280;44557;51.862;19.378;2022-07-04T02:32:24;99388.77;;;17.90;100.00
58785;BME280;44557;51.862;19.378;2022-07-04T02:33:26;99385.21;;;17.94;100.00
58785;BME280;44557;51.862;19.378;2022-07-04T02:34:28;99381.70;;;17.90;100.00
58785;BME280;44557;51.862;19.378;2022-07-04T02:35:29;99383.98;;;17.89;100.00
58785;BME280;44557;51.862;19.378;2022-07-04T02:36:31;99383.60;;;17.89;100.00
58785;BME280;44557;51.862;19.378;2022-07-04T02:37:32;99384.65;;;18.04;99.86
58785;BME280;44557;51.862;19.378;2022-07-04T02:38:34;99387.14;;;18.06;99.23
58785;BME280;44557;51.862;19.378;2022-07-04T02:39:35;99389.54;;;17.99;99.53
58785;BME280;44557;51.862;19.378;2022-07-04T02:40:37;99389.45;;;18.13;98.61
58785;BME280;44557;51.862;19.378;2022-07-04T02:41:38;99389.59;;;17.81;99.89
58785;BME280;44557;51.862;19.378;2022-07-04T02:42:40;99388.21;;;17.68;100.00
58785;BME280;44557;51.862;19.378;2022-07-04T02:43:41;99387.87;;;17.76;100.00
58785;BME280;44557;51.862;19.378;2022-07-04T02:44:43;99386.55;;;17.89;100.00
58785;BME280;44557;51.862;19.378;2022-07-04T02:45:45;99385.50;;;17.91;100.00
58785;BME280;44557;51.862;19.378;2022-07-04T02:46:47;99384.25;;;18.02;99.76
58785;BME280;44557;51.862;19.378;2022-07-04T02:47:48;99386.28;;;18.06;99.38
58785;BME280;44557;51.862;19.378;2022-07-04T02:48:50;99383.66;;;17.94;99.27
58785;BME280;44557;51.862;19.378;2022-07-04T02:49:51;99383.09;;;17.82;100.00
58785;BME280;44557;51.862;19.378;2022-07-04T02:50:52;99381.55;;;17.67;100.00
58785;BME280;44557;51.862;19.378;2022-07-04T02:51:54;99381.92;;;17.68;100.00
58785;BME280;44557;51.862;19.378;2022-07-04T02:52:55;99388.23;;;17.80;100.00
58785;BME280;44557;51.862;19.378;2022-07-04T02:53:57;99388.64;;;18.09;99.59
58785;BME280;44557;51.862;19.378;2022-07-04T02:54:59;99386.86;;;18.03;99.22
58785;BME280;44557;51.862;19.378;2022-07-04T02:56:00;99384.58;;;18.00;99.10
58785;BME280;44557;51.862;19.378;2022-07-04T02:57:05;99387.10;;;17.77;99.97
58785;BME280;44557;51.862;19.378;2022-07-04T02:58:06;99388.30;;;17.55;100.00
58785;BME280;44557;51.862;19.378;2022-07-04T02:59:08;99385.36;;;17.59;100.00
58785;BME280;44557;51.862;19.378;2022-07-04T03:00:10;99387.61;;;17.48;100.00
58785;BME280;44557;51.862;19.378;2022-07-04T03:01:12;99384.55;;;17.45;100.00
58785;BME280;44557;51.862;19.378;2022-07-04T03:02:13;99386.31;;;17.53;100.00
58785;BME280;44557;51.862;19.378;2022-07-04T03:03:15;99382.47;;;17.60;100.00
58785;BME280;44557;51.862;19.378;2022-07-04T03:04:16;99378.79;;;17.61;100.00
58785;BME280;44557;51.862;19.378;2022-07-04T03:05:18;99377.45;;;17.74;100.00
58785;BME280;44557;51.862;19.378;2022-07-04T03:06:19;99380.61;;;17.77;100.00
58785;BME280;44557;51.862;19.378;2022-07-04T03:07:21;99382.84;;;17.88;100.00
58785;BME280;44557;51.862;19.378;2022-07-04T03:08:22;99386.22;;;18.00;99.73
58785;BME280;44557;51.862;19.378;2022-07-04T03:09:24;99383.58;;;17.92;99.68
58785;BME280;44557;51.862;19.378;2022-07-04T03:10:28;99381.00;;;17.85;100.00
58785;BME280;44557;51.862;19.378;2022-07-04T03:11:30;99381.13;;;17.88;99.92
58785;BME280;44557;51.862;19.378;2022-07-04T03:12:31;99379.00;;;17.96;99.56
58785;BME280;44557;51.862;19.378;2022-07-04T03:13:33;99382.45;;;18.01;99.14
58785;BME280;44557;51.862;19.378;2022-07-04T03:14:35;99383.05;;;17.87;99.46
58785;BME280;44557;51.862;19.378;2022-07-04T03:15:36;99381.17;;;17.82;100.00
58785;BME280;44557;51.862;19.378;2022-07-04T03:16:38;99379.06;;;17.94;99.78
58785;BME280;44557;51.862;19.378;2022-07-04T03:17:39;99385.05;;;17.95;99.00
58785;BME280;44557;51.862;19.378;2022-07-04T03:18:41;99383.28;;;17.97;99.19
58785;BME280;44557;51.862;19.378;2022-07-04T03:19:42;99384.64;;;17.93;99.06
58785;BME280;44557;51.862;19.378;2022-07-04T03:20:44;99380.17;;;17.99;98.93
58785;BME280;44557;51.862;19.378;2022-07-04T03:21:45;99382.72;;;17.89;98.92
58785;BME280;44557;51.862;19.378;2022-07-04T03:22:47;99376.67;;;17.84;99.63
58785;BME280;44557;51.862;19.378;2022-07-04T03:23:48;99374.75;;;17.94;99.29
58785;BME280;44557;51.862;19.378;2022-07-04T03:24:59;99376.02;;;18.07;98.18
58785;BME280;44557;51.862;19.378;2022-07-04T03:26:01;99375.27;;;17.98;98.46
58785;BME280;44557;51.862;19.378;2022-07-04T03:27:03;99377.66;;;17.94;98.59
58785;BME280;44557;51.862;19.378;2022-07-04T03:28:05;99373.30;;;18.06;98.22
58785;BME280;44557;51.862;19.378;2022-07-04T03:29:07;99380.39;;;18.31;97.01
58785;BME280;44557;51.862;19.378;2022-07-04T03:30:09;99380.09;;;18.23;96.38
58785;BME280;44557;51.862;19.378;2022-07-04T03:31:11;99380.95;;;18.33;96.07
58785;BME280;44557;51.862;19.378;2022-07-04T03:32:12;99380.30;;;18.23;96.35
58785;BME280;44557;51.862;19.378;2022-07-04T03:33:13;99383.01;;;18.34;95.94
58785;BME280;44557;51.862;19.378;2022-07-04T03:34:15;99382.20;;;18.40;95.42
58785;BME280;44557;51.862;19.378;2022-07-04T03:35:16;99382.16;;;18.39;95.21
58785;BME280;44557;51.862;19.378;2022-07-04T03:36:18;99386.88;;;18.43;95.15
58785;BME280;44557;51.862;19.378;2022-07-04T03:37:20;99390.17;;;18.47;94.66
58785;BME280;44557;51.862;19.378;2022-07-04T03:38:22;99385.92;;;18.56;94.08
58785;BME280;44557;51.862;19.378;2022-07-04T03:39:23;99385.99;;;18.42;94.67
58785;BME280;44557;51.862;19.378;2022-07-04T03:40:25;99383.42;;;18.48;94.76
58785;BME280;44557;51.862;19.378;2022-07-04T03:41:29;99385.15;;;18.62;93.99
58785;BME280;44557;51.862;19.378;2022-07-04T03:42:30;99383.60;;;18.78;92.75
58785;BME280;44557;51.862;19.378;2022-07-04T03:43:32;99388.34;;;18.53;93.25
58785;BME280;44557;51.862;19.378;2022-07-04T03:44:33;99391.66;;;18.62;93.31
58785;BME280;44557;51.862;19.378;2022-07-04T03:45:35;99395.80;;;18.58;93.52
58785;BME280;44557;51.862;19.378;2022-07-04T03:46:36;99395.99;;;18.51;93.36
58785;BME280;44557;51.862;19.378;2022-07-04T03:47:38;99395.77;;;18.48;94.16
58785;BME280;44557;51.862;19.378;2022-07-04T03:48:39;99394.53;;;18.51;93.79
58785;BME280;44557;51.862;19.378;2022-07-04T03:49:44;99395.98;;;18.35;94.64
58785;BME280;44557;51.862;19.378;2022-07-04T03:50:46;99394.14;;;18.28;95.60
58785;BME280;44557;51.862;19.378;2022-07-04T03:51:47;99394.70;;;18.31;95.56
58785;BME280;44557;51.862;19.378;2022-07-04T03:52:49;99393.11;;;18.42;94.91
58785;BME280;44557;51.862;19.378;2022-07-04T03:53:50;99395.95;;;18.44;94.89
58785;BME280;44557;51.862;19.378;2022-07-04T03:54:52;99398.58;;;18.40;94.83
58785;BME280;44557;51.862;19.378;2022-07-04T03:55:53;99396.92;;;18.36;95.54
58785;BME280;44557;51.862;19.378;2022-07-04T03:56:55;99399.55;;;18.32;95.65
58785;BME280;44557;51.862;19.378;2022-07-04T03:57:56;99401.14;;;18.45;95.37
58785;BME280;44557;51.862;19.378;2022-07-04T03:58:58;99403.41;;;18.50;94.84
58785;BME280;44557;51.862;19.378;2022-07-04T03:59:59;99410.59;;;18.68;93.88
58785;BME280;44557;51.862;19.378;2022-07-04T04:01:01;99409.15;;;18.63;93.69
58785;BME280;44557;51.862;19.378;2022-07-04T04:02:03;99408.31;;;18.66;93.29
58785;BME280;44557;51.862;19.378;2022-07-04T04:03:04;99407.41;;;18.51;93.85
58785;BME280;44557;51.862;19.378;2022-07-04T04:04:29;99406.89;;;18.26;95.76
58785;BME280;44557;51.862;19.378;2022-07-04T04:05:48;99407.38;;;18.64;94.25
58785;BME280;44557;51.862;19.378;2022-07-04T04:06:50;99410.52;;;18.58;93.95
58785;BME280;44557;51.862;19.378;2022-07-04T04:08:01;99409.34;;;18.51;93.99
58785;BME280;44557;51.862;19.378;2022-07-04T04:09:02;99411.44;;;18.57;93.83
58785;BME280;44557;51.862;19.378;2022-07-04T04:10:05;99409.59;;;18.48;94.38
58785;BME280;44557;51.862;19.378;2022-07-04T04:11:06;99413.16;;;18.62;93.56
58785;BME280;44557;51.862;19.378;2022-07-04T04:12:08;99413.30;;;18.58;93.73
58785;BME280;44557;51.862;19.378;2022-07-04T04:13:10;99413.79;;;18.76;92.83
58785;BME280;44557;51.862;19.378;2022-07-04T04:14:11;99411.50;;;18.70;92.74
58785;BME280;44557;51.862;19.378;2022-07-04T04:15:13;99411.94;;;18.62;93.48
58785;BME280;44557;51.862;19.378;2022-07-04T04:16:15;99411.98;;;18.68;93.23
58785;BME280;44557;51.862;19.378;2022-07-04T04:17:16;99414.83;;;18.59;93.37
58785;BME280;44557;51.862;19.378;2022-07-04T04:18:18;99412.45;;;18.66;93.43
58785;BME280;44557;51.862;19.378;2022-07-04T04:19:20;99414.49;;;18.77;92.38
58785;BME280;44557;51.862;19.378;2022-07-04T04:20:21;99412.73;;;18.66;92.77
58785;BME280;44557;51.862;19.378;2022-07-04T04:21:23;99405.85;;;18.70;92.86
58785;BME280;44557;51.862;19.378;2022-07-04T04:22:24;99405.82;;;18.60;92.74
58785;BME280;44557;51.862;19.378;2022-07-04T04:23:26;99404.64;;;18.37;94.32
58785;BME280;44557;51.862;19.378;2022-07-04T04:24:27;99404.05;;;18.52;94.16
58785;BME280;44557;51.862;19.378;2022-07-04T04:25:29;99408.47;;;18.61;93.70
58785;BME280;44557;51.862;19.378;2022-07-04T04:26:30;99407.11;;;18.70;93.12
58785;BME280;44557;51.862;19.378;2022-07-04T04:27:32;99404.43;;;18.83;92.20
58785;BME280;44557;51.862;19.378;2022-07-04T04:28:33;99405.96;;;18.80;92.19
58785;BME280;44557;51.862;19.378;2022-07-04T04:29:35;99407.54;;;18.88;91.93
58785;BME280;44557;51.862;19.378;2022-07-04T04:30:36;99405.21;;;18.76;92.66
58785;BME280;44557;51.862;19.378;2022-07-04T04:31:38;99403.38;;;18.94;92.05
58785;BME280;44557;51.862;19.378;2022-07-04T04:32:39;99402.57;;;18.72;92.30
58785;BME280;44557;51.862;19.378;2022-07-04T04:33:41;99399.55;;;18.71;93.26
58785;BME280;44557;51.862;19.378;2022-07-04T04:34:42;99398.91;;;18.68;93.36
58785;BME280;44557;51.862;19.378;2022-07-04T04:35:44;99396.89;;;18.92;92.36
58785;BME280;44557;51.862;19.378;2022-07-04T04:36:45;99399.11;;;18.78;92.17
58785;BME280;44557;51.862;19.378;2022-07-04T04:37:47;99398.42;;;18.93;92.12
58785;BME280;44557;51.862;19.378;2022-07-04T04:38:48;99399.23;;;18.96;91.44
58785;BME280;44557;51.862;19.378;2022-07-04T04:39:50;99403.05;;;18.98;91.27
58785;BME280;44557;51.862;19.378;2022-07-04T04:40:52;99397.65;;;19.00;91.65
58785;BME280;44557;51.862;19.378;2022-07-04T04:41:53;99401.45;;;19.04;91.45
58785;BME280;44557;51.862;19.378;2022-07-04T04:42:54;99399.25;;;19.10;91.19
58785;BME280;44557;51.862;19.378;2022-07-04T04:43:56;99400.73;;;19.20;89.96
58785;BME280;44557;51.862;19.378;2022-07-04T04:44:57;99400.10;;;19.27;89.61
58785;BME280;44557;51.862;19.378;2022-07-04T04:45:59;99397.48;;;19.18;89.89
58785;BME280;44557;51.862;19.378;2022-07-04T04:47:01;99397.64;;;19.06;90.84
58785;BME280;44557;51.862;19.378;2022-07-04T04:48:03;99396.16;;;19.25;90.18
58785;BME280;44557;51.862;19.378;2022-07-04T04:49:04;99393.87;;;19.18;89.93
58785;BME280;44557;51.862;19.378;2022-07-04T04:50:06;99396.74;;;19.18;90.27
58785;BME280;44557;51.862;19.378;2022-07-04T04:51:11;99392.14;;;19.32;89.82
58785;BME280;44557;51.862;19.378;2022-07-04T04:52:13;99387.40;;;19.44;89.30
58785;BME280;44557;51.862;19.378;2022-07-04T04:53:15;99389.75;;;19.56;88.58
58785;BME280;44557;51.862;19.378;2022-07-04T04:54:16;99385.05;;;19.59;88.16
58785;BME280;44557;51.862;19.378;2022-07-04T04:55:18;99388.52;;;19.61;87.83
58785;BME280;44557;51.862;19.378;2022-07-04T04:56:19;99385.48;;;19.86;86.82
58785;BME280;44557;51.862;19.378;2022-07-04T04:57:22;99384.67;;;19.81;86.93
58785;BME280;44557;51.862;19.378;2022-07-04T04:58:23;99385.76;;;19.82;86.52
58785;BME280;44557;51.862;19.378;2022-07-04T04:59:26;99385.73;;;19.89;86.83
58785;BME280;44557;51.862;19.378;2022-07-04T05:00:27;99387.36;;;19.98;86.35
58785;BME280;44557;51.862;19.378;2022-07-04T05:01:29;99386.17;;;20.03;85.94
58785;BME280;44557;51.862;19.378;2022-07-04T05:02:31;99384.33;;;20.06;85.72
58785;BME280;44557;51.862;19.378;2022-07-04T05:03:32;99381.44;;;20.14;85.43
58785;BME280;44557;51.862;19.378;2022-07-04T05:04:34;99377.86;;;20.01;85.31
58785;BME280;44557;51.862;19.378;2022-07-04T05:05:35;99378.36;;;19.93;85.50
58785;BME280;44557;51.862;19.378;2022-07-04T05:06:37;99379.59;;;19.94;85.99
58785;BME280;44557;51.862;19.378;2022-07-04T05:07:39;99379.19;;;20.18;85.48
58785;BME280;44557;51.862;19.378;2022-07-04T05:08:41;99377.66;;;20.32;84.67
58785;BME280;44557;51.862;19.378;2022-07-04T05:09:42;99379.93;;;20.31;84.25
58785;BME280;44557;51.862;19.378;2022-07-04T05:10:44;99378.91;;;20.50;83.73
58785;BME280;44557;51.862;19.378;2022-07-04T05:11:46;99380.55;;;20.61;83.16
58785;BME280;44557;51.862;19.378;2022-07-04T05:12:47;99380.98;;;20.67;82.62
58785;BME280;44557;51.862;19.378;2022-07-04T05:13:49;99384.33;;;20.68;82.15
58785;BME280;44557;51.862;19.378;2022-07-04T05:14:51;99386.45;;;20.74;81.54
58785;BME280;44557;51.862;19.378;2022-07-04T05:15:52;99387.91;;;20.64;82.05
58785;BME280;44557;51.862;19.378;2022-07-04T05:16:54;99391.10;;;20.72;81.84
58785;BME280;44557;51.862;19.378;2022-07-04T05:17:55;99396.34;;;20.86;81.48
58785;BME280;44557;51.862;19.378;2022-07-04T05:18:57;99393.67;;;21.00;81.34
58785;BME280;44557;51.862;19.378;2022-07-04T05:19:58;99392.48;;;21.16;80.96
58785;BME280;44557;51.862;19.378;2022-07-04T05:21:00;99391.21;;;21.19;80.36
58785;BME280;44557;51.862;19.378;2022-07-04T05:22:01;99388.60;;;21.30;79.73
58785;BME280;44557;51.862;19.378;2022-07-04T05:23:03;99389.40;;;21.17;78.65
58785;BME280;44557;51.862;19.378;2022-07-04T05:24:05;99391.90;;;21.25;78.34